createdAt,value
2016-12-23T00:00:23.245Z,1025.29
2016-12-23T00:00:49.350Z,1025.32
2016-12-23T00:01:15.460Z,1025.35
2016-12-23T00:01:41.587Z,1025.25
2016-12-23T00:02:07.728Z,1025.2
2016-12-23T00:02:33.847Z,1025.17
2016-12-23T00:03:00.021Z,1025.13
2016-12-23T00:03:26.150Z,1025.13
2016-12-23T00:03:52.297Z,1025.11
2016-12-23T00:04:18.433Z,1025.1
2016-12-23T00:04:44.554Z,1025.07
2016-12-23T00:05:10.680Z,1025.07
2016-12-23T00:05:36.793Z,1025.09
2016-12-23T00:06:02.933Z,1025.09
2016-12-23T00:06:29.086Z,1025.07
2016-12-23T00:06:55.232Z,1025.1
2016-12-23T00:07:21.540Z,1025.15
2016-12-23T00:07:47.681Z,1025.14
2016-12-23T00:08:13.835Z,1025.13
2016-12-23T00:08:39.937Z,1025.09
2016-12-23T00:09:06.051Z,1025.09
2016-12-23T00:09:33.137Z,1025.1
2016-12-23T00:10:00.040Z,1025.11
2016-12-23T00:10:27.211Z,1025.12
2016-12-23T00:10:53.376Z,1025.16
2016-12-23T00:11:19.800Z,1025.13
2016-12-23T00:11:46.596Z,1025.14
2016-12-23T00:12:13.457Z,1025.15
2016-12-23T00:12:40.916Z,1025.15
2016-12-23T00:13:07.929Z,1025.2
2016-12-23T00:13:34.793Z,1025.23
2016-12-23T00:14:02.505Z,1025.25
2016-12-23T00:14:30.012Z,1025.23
2016-12-23T00:14:56.730Z,1025.3
2016-12-23T00:15:23.771Z,1025.27
2016-12-23T00:15:50.612Z,1025.24
2016-12-23T00:16:16.718Z,1025.27
2016-12-23T00:16:43.156Z,1025.31
2016-12-23T00:17:09.586Z,1025.28
2016-12-23T00:17:35.708Z,1025.37
2016-12-23T00:18:01.805Z,1025.37
2016-12-23T00:18:27.930Z,1025.33
2016-12-23T00:18:54.061Z,1025.35
2016-12-23T00:19:20.153Z,1025.38
2016-12-23T00:19:46.274Z,1025.47
2016-12-23T00:20:12.377Z,1025.47
2016-12-23T00:20:38.503Z,1025.52
2016-12-23T00:21:04.618Z,1025.5
2016-12-23T00:21:30.724Z,1025.51
2016-12-23T00:21:56.836Z,1025.48
2016-12-23T00:22:22.958Z,1025.53
2016-12-23T00:22:49.068Z,1025.52
2016-12-23T00:23:16.232Z,1025.55
2016-12-23T00:23:42.941Z,1025.49
2016-12-23T00:24:09.971Z,1025.51
2016-12-23T00:24:36.217Z,1025.5
2016-12-23T00:25:03.114Z,1025.46
2016-12-23T00:25:29.289Z,1025.51
2016-12-23T00:25:56.456Z,1025.49
2016-12-23T00:26:23.380Z,1025.45
2016-12-23T00:26:50.877Z,1025.47
2016-12-23T00:27:17.105Z,1025.47
2016-12-23T00:27:43.285Z,1025.48
2016-12-23T00:28:10.302Z,1025.41
2016-12-23T00:28:37.706Z,1025.44
2016-12-23T00:29:04.658Z,1025.43
2016-12-23T00:29:32.066Z,1025.35
2016-12-23T00:29:59.001Z,1025.41
2016-12-23T00:30:26.291Z,1025.38
2016-12-23T00:30:52.853Z,1025.4
2016-12-23T00:31:19.490Z,1025.4
2016-12-23T00:31:45.535Z,1025.38
2016-12-23T00:32:11.662Z,1025.39
2016-12-23T00:32:37.808Z,1025.39
2016-12-23T00:33:03.914Z,1025.41
2016-12-23T00:33:30.043Z,1025.41
2016-12-23T00:33:56.150Z,1025.45
2016-12-23T00:34:22.254Z,1025.5
2016-12-23T00:34:48.378Z,1025.4
2016-12-23T00:35:14.496Z,1025.46
2016-12-23T00:35:40.596Z,1025.51
2016-12-23T00:36:06.718Z,1025.57
2016-12-23T00:36:32.835Z,1025.55
2016-12-23T00:36:58.949Z,1025.58
2016-12-23T00:37:25.066Z,1025.56
2016-12-23T00:37:51.169Z,1025.6
2016-12-23T00:38:17.291Z,1025.63
2016-12-23T00:38:43.406Z,1025.58
2016-12-23T00:39:09.508Z,1025.62
2016-12-23T00:39:35.630Z,1025.6
2016-12-23T00:40:01.753Z,1025.57
2016-12-23T00:40:27.852Z,1025.6
2016-12-23T00:40:53.965Z,1025.6
2016-12-23T00:41:20.088Z,1025.58
2016-12-23T00:41:46.194Z,1025.57
2016-12-23T00:42:12.310Z,1025.59
2016-12-23T00:42:38.418Z,1025.58
2016-12-23T00:43:04.537Z,1025.57
2016-12-23T00:43:30.662Z,1025.6
2016-12-23T00:43:56.765Z,1025.59
2016-12-23T00:44:22.877Z,1025.61
2016-12-23T00:44:49.001Z,1025.65
2016-12-23T00:45:15.106Z,1025.65
2016-12-23T00:45:41.216Z,1025.68
2016-12-23T00:46:07.345Z,1025.71
2016-12-23T00:46:33.451Z,1025.74
2016-12-23T00:46:59.559Z,1025.73
2016-12-23T00:47:25.710Z,1025.71
2016-12-23T00:47:51.824Z,1025.67
2016-12-23T00:48:17.947Z,1025.72
2016-12-23T00:48:44.049Z,1025.7
2016-12-23T00:49:10.158Z,1025.69
2016-12-23T00:49:36.281Z,1025.67
2016-12-23T00:50:02.390Z,1025.62
2016-12-23T00:50:28.492Z,1025.57
2016-12-23T00:50:54.618Z,1025.51
2016-12-23T00:51:20.728Z,1025.54
2016-12-23T00:51:46.829Z,1025.54
2016-12-23T00:52:12.959Z,1025.55
2016-12-23T00:52:39.073Z,1025.53
2016-12-23T00:53:05.184Z,1025.52
2016-12-23T00:53:31.299Z,1025.5
2016-12-23T00:53:57.421Z,1025.52
2016-12-23T00:54:23.520Z,1025.53
2016-12-23T00:54:49.631Z,1025.56
2016-12-23T00:55:15.752Z,1025.49
2016-12-23T00:55:41.857Z,1025.57
2016-12-23T00:56:07.968Z,1025.57
2016-12-23T00:56:34.084Z,1025.62
2016-12-23T00:57:00.194Z,1025.56
2016-12-23T00:57:26.297Z,1025.6
2016-12-23T00:57:52.427Z,1025.53
2016-12-23T00:58:18.536Z,1025.56
2016-12-23T00:58:44.645Z,1025.56
2016-12-23T00:59:10.764Z,1025.56
2016-12-23T00:59:36.873Z,1025.52
2016-12-23T01:00:02.992Z,1025.5
2016-12-23T01:00:29.102Z,1025.56
2016-12-23T01:00:55.205Z,1025.54
2016-12-23T01:01:21.327Z,1025.55
2016-12-23T01:01:47.441Z,1025.55
2016-12-23T01:02:13.549Z,1025.54
2016-12-23T01:02:39.674Z,1025.56
2016-12-23T01:03:05.788Z,1025.54
2016-12-23T01:03:31.892Z,1025.57
2016-12-23T01:03:58.010Z,1025.56
2016-12-23T01:04:24.129Z,1025.57
2016-12-23T01:04:50.241Z,1025.61
2016-12-23T01:05:16.349Z,1025.59
2016-12-23T01:05:42.462Z,1025.61
2016-12-23T01:06:08.585Z,1025.6
2016-12-23T01:06:34.700Z,1025.64
2016-12-23T01:07:00.806Z,1025.58
2016-12-23T01:07:26.922Z,1025.55
2016-12-23T01:07:53.046Z,1025.58
2016-12-23T01:08:19.145Z,1025.54
2016-12-23T01:08:45.262Z,1025.57
2016-12-23T01:09:11.384Z,1025.58
2016-12-23T01:09:37.492Z,1025.6
2016-12-23T01:10:03.608Z,1025.61
2016-12-23T01:10:29.717Z,1025.65
2016-12-23T01:10:55.831Z,1025.66
2016-12-23T01:11:21.952Z,1025.67
2016-12-23T01:11:48.053Z,1025.67
2016-12-23T01:12:14.171Z,1025.68
2016-12-23T01:12:40.292Z,1025.66
2016-12-23T01:13:06.402Z,1025.7
2016-12-23T01:13:32.513Z,1025.68
2016-12-23T01:13:58.639Z,1025.73
2016-12-23T01:14:24.743Z,1025.82
2016-12-23T01:14:50.855Z,1025.71
2016-12-23T01:15:16.975Z,1025.74
2016-12-23T01:15:43.089Z,1025.72
2016-12-23T01:16:09.207Z,1025.74
2016-12-23T01:16:35.311Z,1025.72
2016-12-23T01:17:01.427Z,1025.75
2016-12-23T01:17:27.544Z,1025.74
2016-12-23T01:17:53.654Z,1025.72
2016-12-23T01:18:19.755Z,1025.75
2016-12-23T01:18:45.886Z,1025.72
2016-12-23T01:19:11.990Z,1025.76
2016-12-23T01:19:38.102Z,1025.78
2016-12-23T01:20:04.225Z,1025.73
2016-12-23T01:20:30.337Z,1025.84
2016-12-23T01:20:56.442Z,1025.81
2016-12-23T01:21:22.568Z,1025.81
2016-12-23T01:21:48.671Z,1025.78
2016-12-23T01:22:14.791Z,1025.8
2016-12-23T01:22:40.903Z,1025.8
2016-12-23T01:23:07.010Z,1025.75
2016-12-23T01:23:33.136Z,1025.78
2016-12-23T01:23:59.255Z,1025.76
2016-12-23T01:24:25.357Z,1025.76
2016-12-23T01:24:51.475Z,1025.8
2016-12-23T01:25:17.593Z,1025.78
2016-12-23T01:25:43.697Z,1025.78
2016-12-23T01:26:09.813Z,1025.83
2016-12-23T01:26:35.934Z,1025.77
2016-12-23T01:27:02.038Z,1025.77
2016-12-23T01:27:28.155Z,1025.8
2016-12-23T01:27:54.264Z,1025.79
2016-12-23T01:28:20.378Z,1025.78
2016-12-23T01:28:46.501Z,1025.79
2016-12-23T01:29:12.598Z,1025.77
2016-12-23T01:29:38.717Z,1025.82
2016-12-23T01:30:04.842Z,1025.77
2016-12-23T01:30:30.948Z,1025.84
2016-12-23T01:30:57.061Z,1025.85
2016-12-23T01:31:23.218Z,1025.85
2016-12-23T01:31:49.332Z,1025.92
2016-12-23T01:32:15.435Z,1025.93
2016-12-23T01:32:41.555Z,1025.96
2016-12-23T01:33:07.669Z,1025.97
2016-12-23T01:33:33.787Z,1025.98
2016-12-23T01:33:59.900Z,1025.95
2016-12-23T01:34:26.011Z,1026.05
2016-12-23T01:34:52.137Z,1026.01
2016-12-23T01:35:18.239Z,1026.02
2016-12-23T01:35:44.347Z,1025.96
2016-12-23T01:36:10.467Z,1026
2016-12-23T01:36:36.579Z,1026.01
2016-12-23T01:37:02.687Z,1026
2016-12-23T01:37:28.809Z,1026.04
2016-12-23T01:37:54.932Z,1026.06
2016-12-23T01:38:21.040Z,1026.06
2016-12-23T01:38:47.163Z,1026.06
2016-12-23T01:39:13.280Z,1026.12
2016-12-23T01:39:39.386Z,1026.1
2016-12-23T01:40:05.495Z,1026.05
2016-12-23T01:40:31.624Z,1026.12
2016-12-23T01:40:57.752Z,1026.1
2016-12-23T01:41:23.872Z,1026.13
2016-12-23T01:41:49.990Z,1026.13
2016-12-23T01:42:16.100Z,1026.04
2016-12-23T01:42:42.207Z,1026.1
2016-12-23T01:43:08.324Z,1026.15
2016-12-23T01:43:34.442Z,1026.15
2016-12-23T01:44:00.557Z,1026.15
2016-12-23T01:44:26.665Z,1026.12
2016-12-23T01:44:52.777Z,1026.17
2016-12-23T01:45:18.900Z,1026.1
2016-12-23T01:45:45.009Z,1026.17
2016-12-23T01:46:11.109Z,1026.21
2016-12-23T01:46:37.238Z,1026.22
2016-12-23T01:47:03.350Z,1026.17
2016-12-23T01:47:29.460Z,1026.24
2016-12-23T01:47:55.582Z,1026.24
2016-12-23T01:48:21.701Z,1026.28
2016-12-23T01:48:47.807Z,1026.24
2016-12-23T01:49:13.928Z,1026.29
2016-12-23T01:49:40.039Z,1026.24
2016-12-23T01:50:06.157Z,1026.23
2016-12-23T01:50:32.270Z,1026.26
2016-12-23T01:50:58.374Z,1026.21
2016-12-23T01:51:24.531Z,1026.2
2016-12-23T01:51:50.648Z,1026.21
2016-12-23T01:52:16.756Z,1026.21
2016-12-23T01:52:42.874Z,1026.21
2016-12-23T01:53:08.995Z,1026.26
2016-12-23T01:53:35.098Z,1026.22
2016-12-23T01:54:01.211Z,1026.23
2016-12-23T01:54:27.337Z,1026.24
2016-12-23T01:54:53.443Z,1026.27
2016-12-23T01:55:19.561Z,1026.22
2016-12-23T01:55:45.673Z,1026.28
2016-12-23T01:56:11.788Z,1026.24
2016-12-23T01:56:37.913Z,1026.19
2016-12-23T01:57:04.014Z,1026.24
2016-12-23T01:57:30.128Z,1026.27
2016-12-23T01:57:56.249Z,1026.27
2016-12-23T01:58:22.360Z,1026.3
2016-12-23T01:58:48.473Z,1026.28
2016-12-23T01:59:14.596Z,1026.31
2016-12-23T01:59:40.704Z,1026.31
2016-12-23T02:00:06.808Z,1026.32
2016-12-23T02:00:32.932Z,1026.31
2016-12-23T02:00:59.045Z,1026.32
2016-12-23T02:01:25.163Z,1026.35
2016-12-23T02:01:51.266Z,1026.35
2016-12-23T02:02:17.381Z,1026.36
2016-12-23T02:02:43.501Z,1026.33
2016-12-23T02:03:09.615Z,1026.38
2016-12-23T02:03:35.723Z,1026.41
2016-12-23T02:04:01.845Z,1026.38
2016-12-23T02:04:27.957Z,1026.37
2016-12-23T02:04:54.061Z,1026.37
2016-12-23T02:05:20.186Z,1026.43
2016-12-23T02:05:46.301Z,1026.37
2016-12-23T02:06:12.420Z,1026.4
2016-12-23T02:06:38.534Z,1026.43
2016-12-23T02:07:04.668Z,1026.43
2016-12-23T02:07:30.795Z,1026.36
2016-12-23T02:07:56.903Z,1026.42
2016-12-23T02:08:23.004Z,1026.39
2016-12-23T02:08:49.129Z,1026.37
2016-12-23T02:09:15.242Z,1026.4
2016-12-23T02:09:41.352Z,1026.39
2016-12-23T02:10:07.469Z,1026.4
2016-12-23T02:10:33.623Z,1026.39
2016-12-23T02:10:59.720Z,1026.38
2016-12-23T02:11:25.835Z,1026.31
2016-12-23T02:11:51.941Z,1026.36
2016-12-23T02:12:18.060Z,1026.35
2016-12-23T02:12:44.173Z,1026.39
2016-12-23T02:13:10.282Z,1026.31
2016-12-23T02:13:36.399Z,1026.34
2016-12-23T02:14:02.523Z,1026.32
2016-12-23T02:14:28.622Z,1026.34
2016-12-23T02:14:54.741Z,1026.28
2016-12-23T02:15:20.859Z,1026.26
2016-12-23T02:15:46.967Z,1026.3
2016-12-23T02:16:13.074Z,1026.28
2016-12-23T02:16:39.199Z,1026.29
2016-12-23T02:17:05.309Z,1026.31
2016-12-23T02:17:31.427Z,1026.26
2016-12-23T02:17:57.533Z,1026.29
2016-12-23T02:18:23.681Z,1026.31
2016-12-23T02:18:49.800Z,1026.3
2016-12-23T02:19:15.906Z,1026.32
2016-12-23T02:19:42.019Z,1026.26
2016-12-23T02:20:08.138Z,1026.2
2016-12-23T02:20:34.247Z,1026.26
2016-12-23T02:21:00.356Z,1026.26
2016-12-23T02:21:26.478Z,1026.25
2016-12-23T02:21:52.595Z,1026.24
2016-12-23T02:22:18.697Z,1026.26
2016-12-23T02:22:44.823Z,1026.22
2016-12-23T02:23:10.938Z,1026.2
2016-12-23T02:23:37.048Z,1026.18
2016-12-23T02:24:03.171Z,1026.17
2016-12-23T02:24:29.294Z,1026.14
2016-12-23T02:24:55.395Z,1026.16
2016-12-23T02:25:21.508Z,1026.16
2016-12-23T02:25:47.630Z,1026.16
2016-12-23T02:26:13.735Z,1026.14
2016-12-23T02:26:39.852Z,1026.14
2016-12-23T02:27:05.973Z,1026.16
2016-12-23T02:27:32.079Z,1026.16
2016-12-23T02:27:58.178Z,1026.16
2016-12-23T02:28:24.302Z,1026.17
2016-12-23T02:28:50.414Z,1026.16
2016-12-23T02:29:16.533Z,1026.2
2016-12-23T02:29:42.639Z,1026.14
2016-12-23T02:30:08.750Z,1026.16
2016-12-23T02:30:34.871Z,1026.14
2016-12-23T02:31:00.979Z,1026.14
2016-12-23T02:31:27.090Z,1026.12
2016-12-23T02:31:53.211Z,1026.15
2016-12-23T02:32:19.325Z,1026.15
2016-12-23T02:32:45.427Z,1026.15
2016-12-23T02:33:11.553Z,1026.11
2016-12-23T02:33:37.671Z,1026.18
2016-12-23T02:34:03.785Z,1026.17
2016-12-23T02:34:29.892Z,1026.15
2016-12-23T02:34:55.994Z,1026.17
2016-12-23T02:35:22.121Z,1026.15
2016-12-23T02:35:48.243Z,1026.11
2016-12-23T02:36:14.339Z,1026.19
2016-12-23T02:36:40.460Z,1026.16
2016-12-23T02:37:06.571Z,1026.11
2016-12-23T02:37:32.681Z,1026.1
2016-12-23T02:37:58.800Z,1026.14
2016-12-23T02:38:24.924Z,1026.17
2016-12-23T02:38:51.024Z,1026.13
2016-12-23T02:39:17.135Z,1026.1
2016-12-23T02:39:43.246Z,1026.14
2016-12-23T02:40:09.369Z,1026.09
2016-12-23T02:40:35.485Z,1026.07
2016-12-23T02:41:01.591Z,1026.04
2016-12-23T02:41:27.709Z,1026.01
2016-12-23T02:41:53.831Z,1026.02
2016-12-23T02:42:19.933Z,1026
2016-12-23T02:42:46.050Z,1026
2016-12-23T02:43:12.165Z,1025.98
2016-12-23T02:43:38.272Z,1026.02
2016-12-23T02:44:04.381Z,1025.97
2016-12-23T02:44:30.505Z,1025.96
2016-12-23T02:44:56.617Z,1025.93
2016-12-23T02:45:22.737Z,1025.95
2016-12-23T02:45:48.836Z,1025.97
2016-12-23T02:46:14.951Z,1025.96
2016-12-23T02:46:41.072Z,1025.97
2016-12-23T02:47:07.180Z,1025.95
2016-12-23T02:47:33.293Z,1025.95
2016-12-23T02:47:59.413Z,1025.91
2016-12-23T02:48:25.522Z,1025.87
2016-12-23T02:48:51.623Z,1025.94
2016-12-23T02:49:17.745Z,1025.91
2016-12-23T02:49:43.856Z,1025.92
2016-12-23T02:50:09.956Z,1025.99
2016-12-23T02:50:36.080Z,1025.94
2016-12-23T02:51:02.188Z,1025.93
2016-12-23T02:51:28.314Z,1025.94
2016-12-23T02:51:54.418Z,1025.94
2016-12-23T02:52:20.529Z,1025.96
2016-12-23T02:52:46.650Z,1025.96
2016-12-23T02:53:12.763Z,1026.02
2016-12-23T02:53:38.867Z,1026
2016-12-23T02:54:04.993Z,1025.95
2016-12-23T02:54:31.109Z,1025.97
2016-12-23T02:54:57.218Z,1025.93
2016-12-23T02:55:23.338Z,1025.95
2016-12-23T02:55:49.461Z,1025.94
2016-12-23T02:56:15.573Z,1025.96
2016-12-23T02:56:41.692Z,1025.97
2016-12-23T02:57:07.792Z,1025.95
2016-12-23T02:57:33.916Z,1026.01
2016-12-23T02:58:00.028Z,1025.94
2016-12-23T02:58:26.138Z,1025.97
2016-12-23T02:58:52.259Z,1026.01
2016-12-23T02:59:18.379Z,1025.92
2016-12-23T02:59:44.479Z,1025.95
2016-12-23T03:00:10.589Z,1025.98
2016-12-23T03:00:36.708Z,1025.96
2016-12-23T03:01:02.819Z,1025.94
2016-12-23T03:01:28.927Z,1026.01
2016-12-23T03:01:55.040Z,1025.94
2016-12-23T03:02:21.159Z,1025.92
2016-12-23T03:02:47.287Z,1025.95
2016-12-23T03:03:13.387Z,1025.99
2016-12-23T03:03:39.503Z,1026
2016-12-23T03:04:05.619Z,1025.98
2016-12-23T03:04:31.726Z,1025.93
2016-12-23T03:04:57.839Z,1025.96
2016-12-23T03:05:23.962Z,1025.94
2016-12-23T03:05:50.076Z,1025.98
2016-12-23T03:06:16.179Z,1025.97
2016-12-23T03:06:42.302Z,1025.94
2016-12-23T03:07:08.411Z,1026.02
2016-12-23T03:07:34.513Z,1026.01
2016-12-23T03:08:00.633Z,1025.98
2016-12-23T03:08:26.750Z,1026.05
2016-12-23T03:08:52.858Z,1026.03
2016-12-23T03:09:18.974Z,1026
2016-12-23T03:09:45.091Z,1026.03
2016-12-23T03:10:11.196Z,1026.04
2016-12-23T03:10:37.312Z,1026.07
2016-12-23T03:11:03.431Z,1026.03
2016-12-23T03:11:29.538Z,1026.06
2016-12-23T03:11:55.650Z,1026.05
2016-12-23T03:12:21.769Z,1026.05
2016-12-23T03:12:47.880Z,1026.05
2016-12-23T03:13:14.005Z,1026.05
2016-12-23T03:13:40.100Z,1026.07
2016-12-23T03:14:06.217Z,1026.11
2016-12-23T03:14:32.365Z,1026.12
2016-12-23T03:14:58.477Z,1026.19
2016-12-23T03:15:24.591Z,1026.13
2016-12-23T03:15:50.706Z,1026.16
2016-12-23T03:16:16.818Z,1026.13
2016-12-23T03:16:42.924Z,1026.17
2016-12-23T03:17:09.045Z,1026.13
2016-12-23T03:17:35.157Z,1026.12
2016-12-23T03:18:01.267Z,1026.1
2016-12-23T03:18:27.385Z,1026.16
2016-12-23T03:18:53.487Z,1026.13
2016-12-23T03:19:19.611Z,1026.17
2016-12-23T03:19:45.720Z,1026.13
2016-12-23T03:20:11.827Z,1026.09
2016-12-23T03:20:37.951Z,1026.17
2016-12-23T03:21:04.058Z,1026.12
2016-12-23T03:21:30.167Z,1026.1
2016-12-23T03:21:56.295Z,1026.09
2016-12-23T03:22:22.408Z,1026.11
2016-12-23T03:22:48.514Z,1026.07
2016-12-23T03:23:14.634Z,1026.05
2016-12-23T03:23:40.753Z,1026.09
2016-12-23T03:24:06.898Z,1026.07
2016-12-23T03:24:33.012Z,1026.11
2016-12-23T03:24:59.112Z,1026.09
2016-12-23T03:25:25.234Z,1026.07
2016-12-23T03:25:51.347Z,1026.09
2016-12-23T03:26:17.455Z,1026.08
2016-12-23T03:26:43.575Z,1026.04
2016-12-23T03:27:09.696Z,1026.06
2016-12-23T03:27:35.798Z,1026.09
2016-12-23T03:28:01.909Z,1026.11
2016-12-23T03:28:28.034Z,1026.09
2016-12-23T03:28:54.139Z,1026.03
2016-12-23T03:29:20.247Z,1026.06
2016-12-23T03:29:46.356Z,1026.06
2016-12-23T03:30:12.473Z,1026.05
2016-12-23T03:30:38.592Z,1026.06
2016-12-23T03:31:04.696Z,1026.06
2016-12-23T03:31:30.813Z,1026.03
2016-12-23T03:31:56.933Z,1026.11
2016-12-23T03:32:23.043Z,1026.08
2016-12-23T03:32:49.152Z,1026.08
2016-12-23T03:33:15.278Z,1026.1
2016-12-23T03:33:41.381Z,1026.11
2016-12-23T03:34:07.489Z,1026.09
2016-12-23T03:34:33.612Z,1026.1
2016-12-23T03:34:59.726Z,1026.07
2016-12-23T03:35:25.844Z,1026.07
2016-12-23T03:35:51.951Z,1026.1
2016-12-23T03:36:18.067Z,1026.1
2016-12-23T03:36:44.184Z,1026.14
2016-12-23T03:37:10.291Z,1026.1
2016-12-23T03:37:36.396Z,1026.08
2016-12-23T03:38:02.518Z,1026.1
2016-12-23T03:38:28.631Z,1026.13
2016-12-23T03:38:54.734Z,1026.13
2016-12-23T03:39:20.858Z,1026.12
2016-12-23T03:39:46.972Z,1026.12
2016-12-23T03:40:13.081Z,1026.14
2016-12-23T03:40:39.199Z,1026.15
2016-12-23T03:41:05.303Z,1026.1
2016-12-23T03:41:31.433Z,1026.12
2016-12-23T03:41:57.576Z,1026.17
2016-12-23T03:42:23.675Z,1026.19
2016-12-23T03:42:49.795Z,1026.22
2016-12-23T03:43:15.917Z,1026.17
2016-12-23T03:43:42.023Z,1026.19
2016-12-23T03:44:08.140Z,1026.17
2016-12-23T03:44:34.269Z,1026.14
2016-12-23T03:45:00.371Z,1026.16
2016-12-23T03:45:26.484Z,1026.2
2016-12-23T03:45:52.601Z,1026.17
2016-12-23T03:46:18.707Z,1026.19
2016-12-23T03:46:44.828Z,1026.16
2016-12-23T03:47:10.930Z,1026.17
2016-12-23T03:47:37.044Z,1026.14
2016-12-23T03:48:03.162Z,1026.13
2016-12-23T03:48:29.263Z,1026.17
2016-12-23T03:48:55.379Z,1026.18
2016-12-23T03:49:21.496Z,1026.16
2016-12-23T03:49:47.603Z,1026.17
2016-12-23T03:50:13.714Z,1026.2
2016-12-23T03:50:39.839Z,1026.16
2016-12-23T03:51:05.945Z,1026.16
2016-12-23T03:51:32.054Z,1026.21
2016-12-23T03:51:58.181Z,1026.14
2016-12-23T03:52:24.289Z,1026.17
2016-12-23T03:52:50.391Z,1026.16
2016-12-23T03:53:16.517Z,1026.15
2016-12-23T03:53:42.630Z,1026.16
2016-12-23T03:54:08.740Z,1026.21
2016-12-23T03:54:34.850Z,1026.21
2016-12-23T03:55:00.983Z,1026.19
2016-12-23T03:55:27.074Z,1026.2
2016-12-23T03:55:53.193Z,1026.22
2016-12-23T03:56:19.316Z,1026.18
2016-12-23T03:56:45.474Z,1026.21
2016-12-23T03:57:11.590Z,1026.22
2016-12-23T03:57:37.696Z,1026.28
2016-12-23T03:58:03.815Z,1026.22
2016-12-23T03:58:29.942Z,1026.21
2016-12-23T03:58:56.039Z,1026.18
2016-12-23T03:59:22.154Z,1026.21
2016-12-23T03:59:48.274Z,1026.21
2016-12-23T04:00:14.379Z,1026.23
2016-12-23T04:00:40.490Z,1026.22
2016-12-23T04:01:06.613Z,1026.26
2016-12-23T04:01:32.720Z,1026.25
2016-12-23T04:01:58.827Z,1026.27
2016-12-23T04:02:24.949Z,1026.25
2016-12-23T04:02:51.058Z,1026.26
2016-12-23T04:03:17.180Z,1026.25
2016-12-23T04:03:43.283Z,1026.25
2016-12-23T04:04:09.394Z,1026.25
2016-12-23T04:04:35.518Z,1026.27
2016-12-23T04:05:01.625Z,1026.24
2016-12-23T04:05:27.733Z,1026.24
2016-12-23T04:05:53.857Z,1026.23
2016-12-23T04:06:19.967Z,1026.23
2016-12-23T04:06:46.070Z,1026.25
2016-12-23T04:07:12.198Z,1026.25
2016-12-23T04:07:38.313Z,1026.25
2016-12-23T04:08:04.415Z,1026.28
2016-12-23T04:08:30.533Z,1026.22
2016-12-23T04:08:56.632Z,1026.26
2016-12-23T04:09:22.761Z,1026.26
2016-12-23T04:09:48.879Z,1026.2
2016-12-23T04:10:14.984Z,1026.26
2016-12-23T04:10:41.103Z,1026.23
2016-12-23T04:11:07.215Z,1026.23
2016-12-23T04:11:33.325Z,1026.25
2016-12-23T04:11:59.443Z,1026.2
2016-12-23T04:12:25.562Z,1026.21
2016-12-23T04:12:51.659Z,1026.24
2016-12-23T04:13:17.772Z,1026.23
2016-12-23T04:13:43.890Z,1026.2
2016-12-23T04:14:09.994Z,1026.25
2016-12-23T04:14:36.115Z,1026.22
2016-12-23T04:15:02.225Z,1026.2
2016-12-23T04:15:28.337Z,1026.21
2016-12-23T04:15:54.462Z,1026.18
2016-12-23T04:16:20.562Z,1026.17
2016-12-23T04:16:46.674Z,1026.16
2016-12-23T04:17:12.788Z,1026.15
2016-12-23T04:17:38.896Z,1026.18
2016-12-23T04:18:05.009Z,1026.16
2016-12-23T04:18:31.131Z,1026.22
2016-12-23T04:18:57.235Z,1026.15
2016-12-23T04:19:23.338Z,1026.15
2016-12-23T04:19:49.459Z,1026.2
2016-12-23T04:20:15.581Z,1026.21
2016-12-23T04:20:41.729Z,1026.22
2016-12-23T04:21:07.840Z,1026.26
2016-12-23T04:21:33.954Z,1026.22
2016-12-23T04:22:00.075Z,1026.21
2016-12-23T04:22:26.184Z,1026.24
2016-12-23T04:22:52.289Z,1026.25
2016-12-23T04:23:18.408Z,1026.24
2016-12-23T04:23:44.520Z,1026.22
2016-12-23T04:24:10.622Z,1026.23
2016-12-23T04:24:36.748Z,1026.21
2016-12-23T04:25:02.864Z,1026.23
2016-12-23T04:25:28.979Z,1026.18
2016-12-23T04:25:55.090Z,1026.2
2016-12-23T04:26:21.201Z,1026.2
2016-12-23T04:26:47.328Z,1026.21
2016-12-23T04:27:13.431Z,1026.2
2016-12-23T04:27:39.534Z,1026.15
2016-12-23T04:28:05.654Z,1026.17
2016-12-23T04:28:31.769Z,1026.13
2016-12-23T04:28:57.876Z,1026.11
2016-12-23T04:29:23.995Z,1026.12
2016-12-23T04:29:50.119Z,1026.11
2016-12-23T04:30:16.221Z,1026.08
2016-12-23T04:30:42.335Z,1026.07
2016-12-23T04:31:08.445Z,1026.09
2016-12-23T04:31:34.568Z,1026.1
2016-12-23T04:32:00.680Z,1026.07
2016-12-23T04:32:26.789Z,1026.07
2016-12-23T04:32:52.928Z,1026.09
2016-12-23T04:33:19.031Z,1026.09
2016-12-23T04:33:45.127Z,1026.09
2016-12-23T04:34:11.245Z,1026.14
2016-12-23T04:34:37.362Z,1026.08
2016-12-23T04:35:03.469Z,1026.07
2016-12-23T04:35:29.576Z,1026.1
2016-12-23T04:35:55.705Z,1026.08
2016-12-23T04:36:21.815Z,1026.12
2016-12-23T04:36:47.922Z,1026.09
2016-12-23T04:37:14.048Z,1026.15
2016-12-23T04:37:40.158Z,1026.13
2016-12-23T04:38:06.260Z,1026.11
2016-12-23T04:38:32.386Z,1026.1
2016-12-23T04:38:58.496Z,1026.14
2016-12-23T04:39:24.602Z,1026.14
2016-12-23T04:39:50.713Z,1026.14
2016-12-23T04:40:16.835Z,1026.13
2016-12-23T04:40:42.938Z,1026.12
2016-12-23T04:41:09.057Z,1026.16
2016-12-23T04:41:35.185Z,1026.15
2016-12-23T04:42:01.285Z,1026.16
2016-12-23T04:42:27.399Z,1026.14
2016-12-23T04:42:53.505Z,1026.17
2016-12-23T04:43:19.623Z,1026.17
2016-12-23T04:43:45.743Z,1026.15
2016-12-23T04:44:11.847Z,1026.18
2016-12-23T04:44:37.954Z,1026.18
2016-12-23T04:45:04.077Z,1026.15
2016-12-23T04:45:30.182Z,1026.12
2016-12-23T04:45:56.297Z,1026.12
2016-12-23T04:46:22.420Z,1026.1
2016-12-23T04:46:48.528Z,1026.15
2016-12-23T04:47:14.629Z,1026.12
2016-12-23T04:47:40.752Z,1026.11
2016-12-23T04:48:06.867Z,1026.1
2016-12-23T04:48:32.988Z,1026.09
2016-12-23T04:48:59.095Z,1026.06
2016-12-23T04:49:25.210Z,1026.06
2016-12-23T04:49:51.365Z,1026.04
2016-12-23T04:50:17.471Z,1026.08
2016-12-23T04:50:43.577Z,1026.05
2016-12-23T04:51:09.699Z,1026.04
2016-12-23T04:51:35.808Z,1026.02
2016-12-23T04:52:01.916Z,1026.02
2016-12-23T04:52:28.036Z,1026.01
2016-12-23T04:52:54.151Z,1026.01
2016-12-23T04:53:20.263Z,1026.01
2016-12-23T04:53:46.370Z,1025.96
2016-12-23T04:54:12.475Z,1026.04
2016-12-23T04:54:38.598Z,1026.01
2016-12-23T04:55:04.712Z,1025.98
2016-12-23T04:55:30.815Z,1025.96
2016-12-23T04:55:56.934Z,1025.94
2016-12-23T04:56:23.043Z,1025.95
2016-12-23T04:56:49.152Z,1025.97
2016-12-23T04:57:15.273Z,1025.98
2016-12-23T04:57:41.395Z,1025.96
2016-12-23T04:58:07.495Z,1025.98
2016-12-23T04:58:33.607Z,1025.99
2016-12-23T04:58:59.733Z,1026.01
2016-12-23T04:59:25.842Z,1025.99
2016-12-23T04:59:51.956Z,1025.93
2016-12-23T05:00:18.076Z,1025.92
2016-12-23T05:00:44.186Z,1025.96
2016-12-23T05:01:10.285Z,1025.97
2016-12-23T05:01:36.410Z,1025.93
2016-12-23T05:02:02.520Z,1025.94
2016-12-23T05:02:28.656Z,1025.91
2016-12-23T05:02:54.780Z,1025.95
2016-12-23T05:03:20.903Z,1025.91
2016-12-23T05:03:47.004Z,1025.92
2016-12-23T05:04:13.121Z,1025.94
2016-12-23T05:04:39.227Z,1025.91
2016-12-23T05:05:05.347Z,1025.99
2016-12-23T05:05:31.460Z,1025.92
2016-12-23T05:05:57.562Z,1025.93
2016-12-23T05:06:23.683Z,1025.93
2016-12-23T05:06:49.797Z,1025.9
2016-12-23T05:07:15.901Z,1025.93
2016-12-23T05:07:42.021Z,1025.91
2016-12-23T05:08:08.138Z,1025.93
2016-12-23T05:08:34.239Z,1025.92
2016-12-23T05:09:00.352Z,1025.94
2016-12-23T05:09:26.478Z,1025.98
2016-12-23T05:09:52.580Z,1025.94
2016-12-23T05:10:18.695Z,1025.96
2016-12-23T05:10:44.804Z,1025.94
2016-12-23T05:11:10.923Z,1025.98
2016-12-23T05:11:37.048Z,1025.97
2016-12-23T05:12:03.148Z,1025.93
2016-12-23T05:12:29.263Z,1025.88
2016-12-23T05:12:55.383Z,1025.95
2016-12-23T05:13:21.487Z,1025.98
2016-12-23T05:13:47.602Z,1025.93
2016-12-23T05:14:13.727Z,1025.95
2016-12-23T05:14:39.834Z,1025.97
2016-12-23T05:15:05.936Z,1025.92
2016-12-23T05:15:32.057Z,1025.92
2016-12-23T05:15:58.170Z,1025.94
2016-12-23T05:16:24.286Z,1025.9
2016-12-23T05:16:50.387Z,1025.97
2016-12-23T05:17:16.501Z,1025.95
2016-12-23T05:17:42.623Z,1025.89